Claunch, New Mexico
Current Conditions -  °F | °C
As of 9:15 AM on Saturday 25 Oct 2014 (Local Time) from KONM Reporting Station
Clear Clear  
Wind Chill: 57°   Ceiling: Unl
Heat Index: 57°   Visibility: 10mi
Dew Point: 40°   Wind: 8mph
Humidity: 54%   Direction: 350°N
Pressure: 30.32"   Gusts: NA
Location:  34.14°N, 106°W
Report Text: KONM 251515Z AUTO 35007KT 10SM CLR 14/05 A3032 RMK AO2 T01380046
Loading
Personal Weather Stations






























Interactive Weather Map
Tropical Storm Tracking
New forecast layout! Learn more

10-Day Weather Forecast

Advertisements
Track Severe Weather on mobile